Blairsville, GA

7:27 PM EDT on April 21, 2015 (GMT -0400)
Franklin | | Change Station
CLOSE
Current Station
Airport
Location: Franklin,
Elevation: 2021 ft
Nearby Weather Stations

Elev 2021 ft 35.22 °N, 83.42 °W | Updated 12 minutes ago

Clear
Clear
59 °F
Feels Like 59 °F
N
10
Wind Variable Wind from North
Gusts mph

Today
High -- | Low -- °F
--% Chance of Precip.
Yesterday
High -- | Low -- °F
Precip. -- in
6:57 AM 8:13 PM
Waxing Crescent, 13% visible
Pressure 29.94 in
Visibility 10.0 miles
Clouds
Dew Point 23 °F
Humidity 25%
Rainfall 0.00 in
Snow Depth Not available.
UV Not available.
Pollen 10.40 out of 12
Air Quality Not available.
Flu Activity Sporadic
METAR K1A5 212315Z AUTO 36009KT 10SM 15/M05 A2994 RMK AO2 T01501052

More Conditions Fewer Conditions

Pressure 29.94 in
Visibility 10.0 miles
Clouds
Dew Point 23 °F
Humidity 25%
Rainfall 0.00 in
Snow Depth Not available.
UV Not available.
Pollen 10.40 out of 12
Air Quality Not available.
Flu Activity Sporadic
METAR K1A5 212315Z AUTO 36009KT 10SM 15/M05 A2994 RMK AO2 T01501052

More Conditions Fewer Conditions

10-Day Weather Forecast

Almanac

Astronomy

Apr. 21, 2015 Rise Set
Actual Time
Civil Twilight
Nautical Twilight
Astronomical Twilight
Moon
Length of Visible Light
Length of Day
Tomorrow will be .
, % of the Moon is Illuminated

Today's Extremes

State Highs State Lows

Community

WunderPhotos

Upload Photos

1,815,579 photos uploaded!

WunderBlogs® & News

Nearby

Air Quality

  Air Quality AQ Index Pollutant
Not available.

Snow Depth

Station Depth Elevation

Earthquake Activity

City Distance Mag. Time & Date
Minimum magnitude displayed is 2.5.

Coastal Water Temperatures

Place Temperature

Stations

Nearby Weather Stations

Station Location Temp. Windchill Dew Point Humidity Wind Precip. Elev Updated Type